createdAt,value
2024-01-24T00:00:15.141Z,3.57
2024-01-24T00:03:02.144Z,3.63
2024-01-24T00:05:28.934Z,3.63
2024-01-24T00:07:55.643Z,3.65
2024-01-24T00:10:23.755Z,3.67
2024-01-24T00:12:50.424Z,3.67
2024-01-24T00:15:17.143Z,3.78
2024-01-24T00:17:43.760Z,3.86
2024-01-24T00:20:13.079Z,3.90
2024-01-24T00:22:39.605Z,3.88
2024-01-24T00:25:06.727Z,3.98
2024-01-24T00:27:33.363Z,4.02
2024-01-24T00:29:59.934Z,4.02
2024-01-24T00:32:26.660Z,3.98
2024-01-24T00:34:53.297Z,3.97
2024-01-24T00:37:20.116Z,3.95
2024-01-24T00:39:48.115Z,4.00
2024-01-24T00:42:14.815Z,4.02
2024-01-24T00:44:43.074Z,4.04
2024-01-24T00:47:09.674Z,4.03
2024-01-24T00:49:36.236Z,4.04
2024-01-24T00:52:04.402Z,3.96
2024-01-24T00:54:31.055Z,4.08
2024-01-24T00:56:57.608Z,4.10
2024-01-24T00:59:24.117Z,4.11
2024-01-24T01:01:50.669Z,4.09
2024-01-24T01:04:17.256Z,4.10
2024-01-24T01:06:44.025Z,4.10
2024-01-24T01:09:11.420Z,4.14
2024-01-24T01:11:39.151Z,4.18
2024-01-24T01:14:05.986Z,4.25
2024-01-24T01:16:32.708Z,4.26
2024-01-24T01:18:59.470Z,4.29
2024-01-24T01:21:26.065Z,4.28
2024-01-24T01:23:52.585Z,4.37
2024-01-24T01:26:19.623Z,4.38
2024-01-24T01:28:46.305Z,4.34
2024-01-24T01:31:12.827Z,4.32
2024-01-24T01:33:39.496Z,4.27
2024-01-24T01:36:14.306Z,4.28
2024-01-24T01:38:49.427Z,4.28
2024-01-24T01:41:17.544Z,4.32
2024-01-24T01:43:44.690Z,4.35
2024-01-24T01:46:16.494Z,4.37
2024-01-24T01:48:43.484Z,4.43
2024-01-24T01:51:10.794Z,4.47
2024-01-24T01:53:39.229Z,4.52
2024-01-24T01:56:09.727Z,4.56
2024-01-24T01:58:37.966Z,4.58
2024-01-24T02:01:08.179Z,4.71
2024-01-24T02:03:35.283Z,4.80
2024-01-24T02:06:02.448Z,4.87
2024-01-24T02:08:32.239Z,4.91
2024-01-24T02:10:58.798Z,4.90
2024-01-24T02:13:32.128Z,4.93
2024-01-24T02:16:04.185Z,4.96
2024-01-24T02:18:31.467Z,4.94
2024-01-24T02:20:58.553Z,4.97
2024-01-24T02:23:27.071Z,4.96
2024-01-24T02:25:54.191Z,4.95
2024-01-24T02:28:20.819Z,4.90
2024-01-24T02:30:47.339Z,4.96
2024-01-24T02:33:14.401Z,4.98
2024-01-24T02:35:41.011Z,4.99
2024-01-24T02:38:07.649Z,5.00
2024-01-24T02:40:34.331Z,4.97
2024-01-24T02:43:00.994Z,4.98
2024-01-24T02:45:27.712Z,4.95
2024-01-24T02:47:54.395Z,4.92
2024-01-24T02:50:21.143Z,4.95
2024-01-24T02:52:48.069Z,4.96
2024-01-24T02:55:15.974Z,5.03
2024-01-24T02:57:45.857Z,5.19
2024-01-24T03:00:16.320Z,5.24
2024-01-24T03:02:42.994Z,5.42
2024-01-24T03:05:09.611Z,5.49
2024-01-24T03:07:37.300Z,5.59
2024-01-24T03:10:04.693Z,5.68
2024-01-24T03:12:31.358Z,5.72
2024-01-24T03:14:58.133Z,5.75
2024-01-24T03:17:24.721Z,5.79
2024-01-24T03:19:51.714Z,5.79
2024-01-24T03:22:19.024Z,5.91
2024-01-24T03:24:45.750Z,5.94
2024-01-24T03:27:12.433Z,5.97
2024-01-24T03:29:41.523Z,6.03
2024-01-24T03:32:08.014Z,6.04
2024-01-24T03:34:35.136Z,6.06
2024-01-24T03:37:01.774Z,6.05
2024-01-24T03:39:28.829Z,6.00
2024-01-24T03:41:55.411Z,6.06
2024-01-24T03:44:22.079Z,6.04
2024-01-24T03:46:48.635Z,6.09
2024-01-24T03:49:15.972Z,6.13
2024-01-24T03:51:43.633Z,6.19
2024-01-24T03:54:10.180Z,6.20
2024-01-24T03:56:36.839Z,6.22
2024-01-24T03:59:03.391Z,6.21
2024-01-24T04:01:30.194Z,6.18
2024-01-24T04:03:56.891Z,6.19
2024-01-24T04:06:23.656Z,6.16
2024-01-24T04:08:50.322Z,6.23
2024-01-24T04:11:16.871Z,6.30
2024-01-24T04:13:43.638Z,6.32
2024-01-24T04:16:10.479Z,6.30
2024-01-24T04:18:38.005Z,6.32
2024-01-24T04:21:04.940Z,6.28
2024-01-24T04:23:31.666Z,6.32
2024-01-24T04:25:58.143Z,6.31
2024-01-24T04:28:24.914Z,6.26
2024-01-24T04:30:51.524Z,6.28
2024-01-24T04:33:18.351Z,6.22
2024-01-24T04:35:45.042Z,6.25
2024-01-24T04:38:11.640Z,6.25
2024-01-24T04:40:38.232Z,6.21
2024-01-24T04:43:04.875Z,6.20
2024-01-24T04:45:31.470Z,6.16
2024-01-24T04:47:58.448Z,6.15
2024-01-24T04:50:25.265Z,6.11
2024-01-24T04:52:51.948Z,6.10
2024-01-24T04:55:18.877Z,6.09
2024-01-24T04:57:45.501Z,6.10
2024-01-24T05:00:12.658Z,6.10
2024-01-24T05:02:39.927Z,6.11
2024-01-24T05:05:07.478Z,6.06
2024-01-24T05:07:35.010Z,5.98
2024-01-24T05:10:04.053Z,5.92
2024-01-24T05:12:31.554Z,5.84
2024-01-24T05:14:58.209Z,5.86
2024-01-24T05:17:25.003Z,5.85
2024-01-24T05:19:51.766Z,5.82
2024-01-24T05:22:18.776Z,5.83
2024-01-24T05:24:46.420Z,5.76
2024-01-24T05:27:14.042Z,5.80
2024-01-24T05:29:41.597Z,5.75
2024-01-24T05:32:08.093Z,5.69
2024-01-24T05:34:34.869Z,5.70
2024-01-24T05:37:01.528Z,5.70
2024-01-24T05:39:28.161Z,5.73
2024-01-24T05:41:54.676Z,5.70
2024-01-24T05:44:21.786Z,5.77
2024-01-24T05:46:48.439Z,5.72
2024-01-24T05:49:15.633Z,5.70
2024-01-24T05:51:43.055Z,5.69
2024-01-24T05:54:09.619Z,5.64
2024-01-24T05:56:38.881Z,5.68
2024-01-24T05:59:05.440Z,5.61
2024-01-24T06:01:32.205Z,5.76
2024-01-24T06:03:59.060Z,5.77
2024-01-24T06:06:25.879Z,5.80
2024-01-24T06:08:53.080Z,5.83
2024-01-24T06:11:19.697Z,5.85
2024-01-24T06:13:46.377Z,5.87
2024-01-24T06:16:12.919Z,5.88
2024-01-24T06:18:39.546Z,5.89
2024-01-24T06:21:08.307Z,5.93
2024-01-24T06:23:34.871Z,5.99
2024-01-24T06:26:02.796Z,5.98
2024-01-24T06:28:29.380Z,6.03
2024-01-24T06:30:56.373Z,6.07
2024-01-24T06:33:23.147Z,6.06
2024-01-24T06:35:49.808Z,6.07
2024-01-24T06:38:16.465Z,6.13
2024-01-24T06:40:43.026Z,6.15
2024-01-24T06:43:11.785Z,6.18
2024-01-24T06:45:38.566Z,6.22
2024-01-24T06:48:08.270Z,6.25
2024-01-24T06:50:36.949Z,6.30
2024-01-24T06:53:04.666Z,6.36
2024-01-24T06:55:31.645Z,6.43
2024-01-24T06:57:58.350Z,6.43
2024-01-24T07:00:25.154Z,6.53
2024-01-24T07:02:51.833Z,6.64
2024-01-24T07:05:18.519Z,6.70
2024-01-24T07:07:45.328Z,6.76
2024-01-24T07:10:13.057Z,6.91
2024-01-24T07:12:45.738Z,6.98
2024-01-24T07:15:13.316Z,7.13
2024-01-24T07:17:40.321Z,7.21
2024-01-24T07:20:07.771Z,7.28
2024-01-24T07:22:34.252Z,7.33
2024-01-24T07:25:01.965Z,7.42
2024-01-24T07:27:30.021Z,7.46
2024-01-24T07:29:57.554Z,7.50
2024-01-24T07:32:24.173Z,7.50
2024-01-24T07:34:50.826Z,7.53
2024-01-24T07:37:17.600Z,7.52
2024-01-24T07:40:03.004Z,7.50
2024-01-24T07:42:30.243Z,7.51
2024-01-24T07:44:56.877Z,7.52
2024-01-24T07:47:24.620Z,7.58
2024-01-24T07:49:52.779Z,7.63
2024-01-24T07:52:28.681Z,7.68
2024-01-24T07:55:04.131Z,7.71
2024-01-24T07:57:30.815Z,7.76
2024-01-24T07:59:57.801Z,7.74
2024-01-24T08:02:24.581Z,7.84
2024-01-24T08:04:51.354Z,7.92
2024-01-24T08:07:19.513Z,7.97
2024-01-24T08:09:46.493Z,8.04
2024-01-24T08:12:13.228Z,8.07
2024-01-24T08:14:40.785Z,8.11
2024-01-24T08:17:11.394Z,8.12
2024-01-24T08:19:39.171Z,8.17
2024-01-24T08:22:06.285Z,8.19
2024-01-24T08:24:32.957Z,8.19
2024-01-24T08:26:59.671Z,8.25
2024-01-24T08:29:32.892Z,8.29
2024-01-24T08:32:04.840Z,8.35
2024-01-24T08:34:31.518Z,8.39
2024-01-24T08:36:58.136Z,8.42
2024-01-24T08:39:24.761Z,8.43
2024-01-24T08:41:51.362Z,8.47
2024-01-24T08:44:18.807Z,8.52
2024-01-24T08:46:45.301Z,8.64
2024-01-24T08:49:13.488Z,8.71
2024-01-24T08:51:40.102Z,8.77
2024-01-24T08:54:07.504Z,8.81
2024-01-24T08:56:34.734Z,8.84
2024-01-24T08:59:01.373Z,8.91
2024-01-24T09:01:31.258Z,8.98
2024-01-24T09:04:00.317Z,9.04
2024-01-24T09:06:27.036Z,9.07
2024-01-24T09:08:54.294Z,9.20
2024-01-24T09:11:21.732Z,9.28
2024-01-24T09:13:49.617Z,9.30
2024-01-24T09:16:18.488Z,9.33
2024-01-24T09:18:45.367Z,9.28
2024-01-24T09:21:12.189Z,9.27
2024-01-24T09:23:38.826Z,9.31
2024-01-24T09:26:06.789Z,9.35
2024-01-24T09:28:33.410Z,9.35
2024-01-24T09:31:00.150Z,9.34
2024-01-24T09:33:27.189Z,9.31
2024-01-24T09:35:53.947Z,9.25
2024-01-24T09:38:20.597Z,9.25
2024-01-24T09:40:47.332Z,9.26
2024-01-24T09:43:15.260Z,9.23
2024-01-24T09:45:45.424Z,9.43
2024-01-24T10:01:44.812Z,9.68
2024-01-24T10:04:16.646Z,9.75
2024-01-24T10:06:48.257Z,9.82
2024-01-24T10:09:16.972Z,9.97
2024-01-24T10:11:46.251Z,10.11
2024-01-24T10:14:21.038Z,10.28
2024-01-24T10:16:52.200Z,10.41
2024-01-24T10:19:26.101Z,10.43
2024-01-24T10:21:54.666Z,10.43
2024-01-24T10:24:23.176Z,10.43
2024-01-24T10:26:53.188Z,10.41
2024-01-24T10:29:21.411Z,10.42
2024-01-24T10:31:57.570Z,10.45
2024-01-24T10:34:43.781Z,10.45
2024-01-24T10:37:12.410Z,10.42
2024-01-24T10:39:41.156Z,10.39
2024-01-24T10:42:16.036Z,10.40
2024-01-24T10:44:45.919Z,10.41
2024-01-24T10:47:15.645Z,10.46
2024-01-24T10:49:45.347Z,10.51
2024-01-24T10:52:14.569Z,10.61
2024-01-24T10:54:43.180Z,10.77
2024-01-24T10:57:13.960Z,10.92
2024-01-24T10:59:45.370Z,11.22
2024-01-24T11:02:13.676Z,11.49
2024-01-24T11:04:42.725Z,11.75
2024-01-24T11:07:16.918Z,11.94
2024-01-24T11:09:55.216Z,12.12
2024-01-24T11:12:23.822Z,12.21
2024-01-24T11:14:53.813Z,12.16
2024-01-24T11:17:22.675Z,12.00
2024-01-24T11:19:50.870Z,11.82
2024-01-24T11:22:30.116Z,11.62
2024-01-24T11:25:00.631Z,11.43
2024-01-24T11:27:39.534Z,11.28
2024-01-24T11:30:27.936Z,11.08
2024-01-24T11:32:59.541Z,10.88
2024-01-24T11:35:28.856Z,10.71
2024-01-24T11:38:08.350Z,10.59
2024-01-24T11:40:49.183Z,10.47
2024-01-24T11:43:46.846Z,10.42
2024-01-24T11:46:15.369Z,10.31
2024-01-24T11:48:43.595Z,10.28
2024-01-24T11:51:14.408Z,10.24
2024-01-24T11:53:42.683Z,10.23
2024-01-24T11:56:17.502Z,10.19
2024-01-24T11:58:45.517Z,10.21
2024-01-24T12:01:14.114Z,10.18
2024-01-24T12:03:50.629Z,10.13
2024-01-24T12:06:20.344Z,10.16
2024-01-24T12:08:50.520Z,10.13
2024-01-24T12:11:19.940Z,10.07
2024-01-24T12:13:48.778Z,10.19
2024-01-24T12:16:16.894Z,10.18
2024-01-24T12:18:45.231Z,10.15
2024-01-24T12:21:13.794Z,10.17
2024-01-24T12:23:42.013Z,10.22
2024-01-24T12:26:10.709Z,10.21
2024-01-24T12:28:39.061Z,10.13
2024-01-24T12:31:07.637Z,10.19
2024-01-24T12:33:37.282Z,10.31
2024-01-24T12:36:06.714Z,10.50
2024-01-24T12:38:36.612Z,10.59
2024-01-24T12:41:05.403Z,10.69
2024-01-24T12:43:33.716Z,10.66
2024-01-24T12:46:12.511Z,10.75
2024-01-24T12:48:40.725Z,10.77
2024-01-24T12:51:09.491Z,10.89
2024-01-24T12:53:37.632Z,10.95
2024-01-24T12:56:06.394Z,10.94
2024-01-24T12:58:34.609Z,10.94
2024-01-24T13:01:03.009Z,10.89
2024-01-24T13:03:31.453Z,10.87
2024-01-24T13:06:00.380Z,10.85
2024-01-24T13:08:28.672Z,10.78
2024-01-24T13:10:57.436Z,10.85
2024-01-24T13:13:25.728Z,10.88
2024-01-24T13:15:55.082Z,10.91
2024-01-24T13:18:24.270Z,10.91
2024-01-24T13:20:52.446Z,10.95
2024-01-24T13:23:20.392Z,10.96
2024-01-24T13:25:48.566Z,11.00
2024-01-24T13:28:16.589Z,11.01
2024-01-24T13:30:45.373Z,10.99
2024-01-24T13:33:13.679Z,10.97
2024-01-24T13:35:42.048Z,11.04
2024-01-24T13:38:10.549Z,10.96
2024-01-24T13:40:39.494Z,11.03
2024-01-24T13:43:07.993Z,11.08
2024-01-24T13:45:39.683Z,11.11
2024-01-24T13:48:10.117Z,11.16
2024-01-24T13:50:39.119Z,11.15
2024-01-24T13:53:07.666Z,11.13
2024-01-24T13:55:35.756Z,11.14
2024-01-24T13:58:04.589Z,11.12
2024-01-24T14:00:33.154Z,11.12
2024-01-24T14:03:01.753Z,11.12
2024-01-24T14:05:30.135Z,11.08
2024-01-24T14:07:58.466Z,11.05
2024-01-24T14:10:26.609Z,11.01
2024-01-24T14:12:54.737Z,11.04
2024-01-24T14:15:32.742Z,11.06
2024-01-24T14:18:03.871Z,11.01
2024-01-24T14:20:32.102Z,11.03
2024-01-24T14:23:00.011Z,11.08
2024-01-24T14:25:28.361Z,11.14
2024-01-24T14:27:57.135Z,11.17
2024-01-24T14:30:26.135Z,11.19
2024-01-24T14:32:54.191Z,11.12
2024-01-24T14:35:24.299Z,11.10
2024-01-24T14:37:52.521Z,11.01
2024-01-24T14:40:20.907Z,10.98
2024-01-24T14:42:49.092Z,10.89
2024-01-24T14:45:17.128Z,10.87
2024-01-24T14:47:45.322Z,10.85
2024-01-24T14:50:13.831Z,10.80
2024-01-24T14:52:42.080Z,10.78
2024-01-24T14:55:10.616Z,10.64
2024-01-24T14:57:39.364Z,10.78
2024-01-24T15:00:11.499Z,10.83
2024-01-24T15:02:40.000Z,10.80
2024-01-24T15:05:09.802Z,10.74
2024-01-24T15:07:38.791Z,10.57
2024-01-24T15:10:09.364Z,10.44
2024-01-24T15:12:38.251Z,10.30
2024-01-24T15:15:07.001Z,10.06
2024-01-24T15:17:36.018Z,9.92
2024-01-24T15:20:05.228Z,9.82
2024-01-24T15:22:34.273Z,9.71
2024-01-24T15:25:04.751Z,9.63
2024-01-24T15:27:33.376Z,9.54
2024-01-24T15:30:01.742Z,9.51
2024-01-24T15:32:31.137Z,9.50
2024-01-24T15:34:59.680Z,9.52
2024-01-24T15:37:28.265Z,9.59
2024-01-24T15:39:57.386Z,9.60
2024-01-24T15:42:27.710Z,9.60
2024-01-24T15:44:55.832Z,9.54
2024-01-24T15:47:25.135Z,9.48
2024-01-24T15:49:53.323Z,9.39
2024-01-24T15:52:21.765Z,9.34
2024-01-24T15:54:50.648Z,9.34
2024-01-24T15:57:18.779Z,9.31
2024-01-24T15:59:46.920Z,9.29
2024-01-24T16:02:16.705Z,9.29
2024-01-24T16:04:45.403Z,9.29
2024-01-24T16:07:15.655Z,9.29
2024-01-24T16:09:44.067Z,9.19
2024-01-24T16:12:13.271Z,9.23
2024-01-24T16:14:41.794Z,9.24
2024-01-24T16:17:11.640Z,9.21
2024-01-24T16:19:41.059Z,9.22
2024-01-24T16:22:10.721Z,9.18
2024-01-24T16:24:39.004Z,9.18
2024-01-24T16:27:07.155Z,9.18
2024-01-24T16:29:35.254Z,9.22
2024-01-24T16:32:03.240Z,9.29
2024-01-24T16:34:31.361Z,9.33
2024-01-24T16:36:59.798Z,9.29
2024-01-24T16:39:27.918Z,9.27
2024-01-24T16:41:55.855Z,9.27
2024-01-24T16:44:23.840Z,9.26
2024-01-24T16:46:51.821Z,9.27
2024-01-24T16:49:19.898Z,9.22
2024-01-24T16:51:48.105Z,9.24
2024-01-24T16:54:16.242Z,9.28
2024-01-24T16:56:44.294Z,9.31
2024-01-24T16:59:12.980Z,9.32
2024-01-24T17:01:40.986Z,9.40
2024-01-24T17:04:09.295Z,9.39
2024-01-24T17:06:39.905Z,9.38
2024-01-24T17:09:08.710Z,9.35
2024-01-24T17:11:36.694Z,9.31
2024-01-24T17:14:04.644Z,9.29
2024-01-24T17:16:32.623Z,9.22
2024-01-24T17:19:00.829Z,9.22
2024-01-24T17:21:28.806Z,9.23
2024-01-24T17:23:56.694Z,9.24
2024-01-24T17:26:24.570Z,9.22
2024-01-24T17:28:54.424Z,9.19
2024-01-24T17:31:23.226Z,9.16
2024-01-24T17:33:51.680Z,9.19
2024-01-24T17:36:19.662Z,9.15
2024-01-24T17:38:47.722Z,9.10
2024-01-24T17:41:16.075Z,9.10
2024-01-24T17:43:44.111Z,9.13
2024-01-24T17:46:12.315Z,9.13
2024-01-24T17:48:40.622Z,9.14
2024-01-24T17:51:08.608Z,9.10
2024-01-24T17:53:36.958Z,9.15
2024-01-24T17:56:05.391Z,9.17
2024-01-24T17:58:37.205Z,9.18
2024-01-24T18:01:06.031Z,9.14
2024-01-24T18:03:36.084Z,9.17
2024-01-24T18:06:04.386Z,9.15
2024-01-24T18:08:32.462Z,9.14
2024-01-24T18:11:00.538Z,9.13
2024-01-24T18:13:29.128Z,9.09
2024-01-24T18:15:57.144Z,9.12
2024-01-24T18:18:27.402Z,9.14
2024-01-24T18:20:55.733Z,9.12
2024-01-24T18:23:23.797Z,9.08
2024-01-24T18:25:51.775Z,9.06
2024-01-24T18:28:19.835Z,9.05
2024-01-24T18:30:47.759Z,9.02
2024-01-24T18:33:16.490Z,9.08
2024-01-24T18:35:44.804Z,9.07
2024-01-24T18:38:12.937Z,9.09
2024-01-24T18:40:41.132Z,9.08
2024-01-24T18:43:10.416Z,9.08
2024-01-24T18:45:39.207Z,9.09
2024-01-24T18:48:10.942Z,9.10
2024-01-24T18:50:43.100Z,9.10
2024-01-24T18:53:11.761Z,9.09
2024-01-24T18:55:39.961Z,9.14
2024-01-24T18:58:08.503Z,9.10
2024-01-24T19:00:36.933Z,9.08
2024-01-24T19:03:05.361Z,9.01
2024-01-24T19:05:37.601Z,8.91
2024-01-24T19:08:09.466Z,8.86
2024-01-24T19:10:39.167Z,8.78
2024-01-24T19:13:08.470Z,8.81
2024-01-24T19:15:36.711Z,8.78
2024-01-24T19:18:11.078Z,8.71
2024-01-24T19:20:42.698Z,8.70
2024-01-24T19:23:10.929Z,8.69
2024-01-24T19:25:39.064Z,8.64
2024-01-24T19:28:07.337Z,8.59
2024-01-24T19:30:35.506Z,8.64
2024-01-24T19:33:03.754Z,8.70
2024-01-24T19:35:33.069Z,8.60
2024-01-24T19:38:02.682Z,8.63
2024-01-24T19:40:30.994Z,8.61
2024-01-24T19:42:59.020Z,8.61
2024-01-24T19:45:29.338Z,8.63
2024-01-24T19:47:57.330Z,8.69
2024-01-24T19:50:25.329Z,8.74
2024-01-24T19:52:55.415Z,8.69
2024-01-24T19:55:25.041Z,8.75
2024-01-24T19:57:53.114Z,8.70
2024-01-24T20:00:21.230Z,8.66
2024-01-24T20:02:49.837Z,8.65
2024-01-24T20:05:18.725Z,8.65
2024-01-24T20:07:47.334Z,8.63
2024-01-24T20:10:15.656Z,8.57
2024-01-24T20:12:43.774Z,8.49
2024-01-24T20:15:12.083Z,8.38
2024-01-24T20:17:46.208Z,8.25
2024-01-24T20:20:15.969Z,8.21
2024-01-24T20:22:44.558Z,8.14
2024-01-24T20:25:12.727Z,8.08
2024-01-24T20:27:40.867Z,8.01
2024-01-24T20:30:09.133Z,7.96
2024-01-24T20:32:43.008Z,7.97
2024-01-24T20:35:17.219Z,7.98
2024-01-24T20:37:45.216Z,7.98
2024-01-24T20:40:13.920Z,8.02
2024-01-24T20:42:42.489Z,8.00
2024-01-24T20:45:11.068Z,7.99
2024-01-24T20:47:39.226Z,7.99
2024-01-24T20:50:08.035Z,7.99
2024-01-24T20:52:36.482Z,7.91
2024-01-24T20:55:05.165Z,7.90
2024-01-24T20:57:34.528Z,7.91
2024-01-24T21:00:03.779Z,7.89
2024-01-24T21:02:31.940Z,7.90
2024-01-24T21:04:59.908Z,7.93
2024-01-24T21:07:28.004Z,7.91
2024-01-24T21:09:56.352Z,7.92
2024-01-24T21:12:24.325Z,7.94
2024-01-24T21:14:52.705Z,7.99
2024-01-24T21:17:21.315Z,8.04
2024-01-24T21:19:49.671Z,8.12
2024-01-24T21:22:18.954Z,8.21
2024-01-24T21:24:47.028Z,8.24
2024-01-24T21:27:14.939Z,8.29
2024-01-24T21:29:45.383Z,8.31
2024-01-24T21:32:14.445Z,8.32
2024-01-24T21:34:42.667Z,8.31
2024-01-24T21:37:10.745Z,8.27
2024-01-24T21:39:38.795Z,8.24
2024-01-24T21:42:07.394Z,8.28
2024-01-24T21:44:36.334Z,8.24
2024-01-24T21:47:04.819Z,8.23
2024-01-24T21:49:32.969Z,8.20
2024-01-24T21:52:01.196Z,8.14
2024-01-24T21:54:29.213Z,8.15
2024-01-24T21:56:57.586Z,8.11
2024-01-24T21:59:25.579Z,8.07
2024-01-24T22:01:53.573Z,7.94
2024-01-24T22:04:21.792Z,8.10
2024-01-24T22:06:50.260Z,8.04
2024-01-24T22:09:18.340Z,8.04
2024-01-24T22:11:46.614Z,7.98
2024-01-24T22:14:14.530Z,8.03
2024-01-24T22:16:42.470Z,8.01
2024-01-24T22:19:10.490Z,8.10
2024-01-24T22:21:44.644Z,8.11
2024-01-24T22:24:12.700Z,8.12
2024-01-24T22:26:41.272Z,8.13
2024-01-24T22:29:10.570Z,8.17
2024-01-24T22:31:38.851Z,8.22
2024-01-24T22:34:07.130Z,8.24
2024-01-24T22:36:35.323Z,8.26
2024-01-24T22:39:03.606Z,8.26
2024-01-24T22:41:32.247Z,8.21
2024-01-24T22:44:00.360Z,8.13
2024-01-24T22:46:28.414Z,8.04
2024-01-24T22:48:57.995Z,7.99
2024-01-24T22:51:26.099Z,7.95
2024-01-24T22:53:55.823Z,7.88
2024-01-24T22:56:24.013Z,7.83
2024-01-24T22:58:51.964Z,7.78
2024-01-24T23:01:20.309Z,7.72
2024-01-24T23:03:48.642Z,7.60
2024-01-24T23:06:16.672Z,7.59
2024-01-24T23:08:44.928Z,7.65
2024-01-24T23:11:13.666Z,7.55
2024-01-24T23:13:41.850Z,7.51
2024-01-24T23:16:09.901Z,7.52
2024-01-24T23:18:38.083Z,7.50
2024-01-24T23:21:06.291Z,7.49
2024-01-24T23:23:34.277Z,7.55
2024-01-24T23:26:02.240Z,7.56
2024-01-24T23:28:30.717Z,7.55
2024-01-24T23:30:58.692Z,7.56
2024-01-24T23:33:29.377Z,7.51
2024-01-24T23:35:57.489Z,7.48
2024-01-24T23:38:25.501Z,7.46
2024-01-24T23:40:53.371Z,7.46
2024-01-24T23:43:21.372Z,7.42
2024-01-24T23:45:49.414Z,7.42
2024-01-24T23:48:17.669Z,7.36
2024-01-24T23:50:45.791Z,7.32
2024-01-24T23:53:13.816Z,7.32
2024-01-24T23:55:41.671Z,7.32
2024-01-24T23:58:09.665Z,7.26
